createdAt,value
2023-02-22T00:01:01.921Z,70.44
2023-02-22T00:02:11.534Z,70.42
2023-02-22T00:03:25.895Z,70.71
2023-02-22T00:04:30.408Z,70.78
2023-02-22T00:05:36.511Z,70.95
2023-02-22T00:06:40.627Z,71.04
2023-02-22T00:07:53.169Z,70.69
2023-02-22T00:08:58.002Z,70.91
2023-02-22T00:10:02.335Z,70.68
2023-02-22T00:11:11.459Z,70.59
2023-02-22T00:12:17.049Z,70.61
2023-02-22T00:13:29.511Z,70.73
2023-02-22T00:14:34.661Z,70.78
2023-02-22T00:15:45.659Z,70.71
2023-02-22T00:16:54.706Z,71.14
2023-02-22T00:17:58.837Z,70.63
2023-02-22T00:19:02.405Z,70.67
2023-02-22T00:20:21.266Z,71.02
2023-02-22T00:21:27.982Z,71.21
2023-02-22T00:22:31.581Z,71.00
2023-02-22T00:23:35.219Z,70.99
2023-02-22T00:24:39.130Z,71.33
2023-02-22T00:25:46.969Z,71.58
2023-02-22T00:26:56.442Z,71.59
2023-02-22T00:28:01.449Z,71.41
2023-02-22T00:29:15.123Z,71.79
2023-02-22T00:30:30.264Z,71.70
2023-02-22T00:31:41.658Z,71.81
2023-02-22T00:32:47.395Z,71.65
2023-02-22T00:33:52.477Z,71.69
2023-02-22T00:34:57.607Z,71.62
2023-02-22T00:36:01.608Z,71.29
2023-02-22T00:37:09.955Z,71.29
2023-02-22T00:38:19.847Z,71.47
2023-02-22T00:39:23.849Z,71.58
2023-02-22T00:40:34.615Z,71.28
2023-02-22T00:41:39.161Z,71.64
2023-02-22T00:42:43.176Z,71.78
2023-02-22T00:43:49.478Z,72.06
2023-02-22T00:44:55.160Z,72.28
2023-02-22T00:45:59.925Z,72.35
2023-02-22T00:47:04.912Z,72.20
2023-02-22T00:48:12.028Z,72.08
2023-02-22T00:49:18.084Z,71.96
2023-02-22T00:50:26.906Z,72.23
2023-02-22T00:51:34.498Z,72.24
2023-02-22T00:52:39.306Z,72.35
2023-02-22T00:53:43.716Z,72.27
2023-02-22T00:54:52.064Z,72.39
2023-02-22T00:55:56.786Z,72.25
2023-02-22T00:57:04.525Z,72.32
2023-02-22T00:58:10.259Z,72.21
2023-02-22T00:59:17.525Z,72.57
2023-02-22T01:00:33.974Z,72.26
2023-02-22T01:01:38.503Z,72.46
2023-02-22T01:02:55.193Z,72.48
2023-02-22T01:04:02.136Z,72.21
2023-02-22T01:05:12.690Z,72.68
2023-02-22T01:06:16.561Z,72.68
2023-02-22T01:07:21.015Z,72.42
2023-02-22T01:08:25.318Z,72.47
2023-02-22T01:09:31.889Z,72.23
2023-02-22T01:10:37.843Z,72.38
2023-02-22T01:11:41.758Z,72.56
2023-02-22T01:12:50.121Z,72.44
2023-02-22T01:13:54.268Z,72.05
2023-02-22T01:14:58.305Z,72.30
2023-02-22T01:16:02.928Z,72.68
2023-02-22T01:17:09.201Z,72.62
2023-02-22T01:18:18.481Z,72.63
2023-02-22T01:19:27.505Z,72.71
2023-02-22T01:20:31.576Z,72.84
2023-02-22T01:21:37.722Z,72.92
2023-02-22T01:22:49.666Z,72.85
2023-02-22T01:23:56.163Z,72.76
2023-02-22T01:25:17.022Z,72.56
2023-02-22T01:26:27.633Z,72.78
2023-02-22T01:27:37.323Z,72.63
2023-02-22T01:28:41.211Z,72.95
2023-02-22T01:29:50.591Z,73.15
2023-02-22T01:30:57.257Z,73.28
2023-02-22T01:32:02.522Z,73.35
2023-02-22T01:33:16.804Z,73.34
2023-02-22T01:34:27.004Z,73.33
2023-02-22T01:35:36.509Z,73.61
2023-02-22T01:36:44.774Z,73.60
2023-02-22T01:37:49.868Z,73.67
2023-02-22T01:38:55.037Z,73.61
2023-02-22T01:40:17.068Z,74.04
2023-02-22T01:41:24.382Z,73.99
2023-02-22T01:42:29.894Z,73.67
2023-02-22T01:43:35.300Z,73.74
2023-02-22T01:44:42.398Z,73.91
2023-02-22T01:45:59.828Z,74.08
2023-02-22T01:47:11.712Z,73.79
2023-02-22T01:48:47.457Z,73.95
2023-02-22T01:49:54.406Z,73.99
2023-02-22T01:51:23.770Z,74.09
2023-02-22T01:52:27.592Z,73.72
2023-02-22T01:53:43.799Z,74.02
2023-02-22T01:54:56.626Z,73.97
2023-02-22T01:56:01.605Z,74.01
2023-02-22T01:57:35.314Z,73.92
2023-02-22T01:58:48.406Z,74.08
2023-02-22T02:00:00.445Z,73.90
2023-02-22T02:01:05.461Z,74.08
2023-02-22T02:02:10.734Z,74.03
2023-02-22T02:03:27.811Z,74.16
2023-02-22T02:04:33.686Z,74.06
2023-02-22T02:05:39.224Z,73.96
2023-02-22T02:06:44.334Z,74.15
2023-02-22T02:07:49.495Z,74.18
2023-02-22T02:09:22.042Z,74.31
2023-02-22T02:10:27.781Z,74.21
2023-02-22T02:11:33.668Z,74.00
2023-02-22T02:12:37.752Z,74.13
2023-02-22T02:13:41.718Z,74.23
2023-02-22T02:14:48.458Z,74.43
2023-02-22T02:15:56.392Z,74.15
2023-02-22T02:17:03.865Z,74.18
2023-02-22T02:18:13.620Z,74.34
2023-02-22T02:20:00.047Z,74.20
2023-02-22T02:21:35.069Z,74.18
2023-02-22T02:23:13.113Z,74.17
2023-02-22T02:24:44.427Z,74.44
2023-02-22T02:26:18.004Z,74.29
2023-02-22T02:27:41.638Z,74.40
2023-02-22T02:29:24.108Z,74.53
2023-02-22T02:31:02.432Z,74.23
2023-02-22T02:32:34.574Z,74.14
2023-02-22T02:34:05.804Z,74.65
2023-02-22T02:35:26.541Z,74.55
2023-02-22T02:36:57.036Z,74.55
2023-02-22T02:38:42.227Z,74.08
2023-02-22T02:40:30.799Z,74.22
2023-02-22T02:41:43.476Z,74.18
2023-02-22T02:43:18.076Z,74.45
2023-02-22T02:44:36.482Z,74.78
2023-02-22T02:45:56.508Z,74.74
2023-02-22T02:47:23.161Z,75.21
2023-02-22T02:48:31.210Z,75.17
2023-02-22T02:49:55.677Z,75.45
2023-02-22T02:51:03.516Z,75.49
2023-02-22T02:52:13.721Z,75.32
2023-02-22T02:53:25.322Z,75.27
2023-02-22T02:54:30.884Z,75.24
2023-02-22T02:55:37.330Z,75.24
2023-02-22T02:56:45.704Z,75.29
2023-02-22T02:57:52.877Z,75.21
2023-02-22T02:58:57.793Z,75.20
2023-02-22T03:00:01.734Z,75.29
2023-02-22T03:01:06.502Z,75.20
2023-02-22T03:02:40.711Z,75.20
2023-02-22T03:03:44.309Z,75.24
2023-02-22T03:05:32.018Z,74.85
2023-02-22T03:06:55.094Z,74.91
2023-02-22T03:08:57.226Z,75.00
2023-02-22T03:10:25.425Z,75.08
2023-02-22T03:11:51.409Z,74.94
2023-02-22T03:13:45.260Z,75.39
2023-02-22T03:15:32.603Z,75.42
2023-02-22T03:17:15.586Z,75.20
2023-02-22T03:18:36.595Z,75.49
2023-02-22T03:19:59.335Z,75.44
2023-02-22T03:21:20.512Z,75.40
2023-02-22T03:22:53.464Z,75.12
2023-02-22T03:24:18.914Z,75.23
2023-02-22T03:25:50.563Z,75.25
2023-02-22T03:27:10.482Z,75.36
2023-02-22T03:28:19.973Z,75.16
2023-02-22T03:29:28.782Z,75.01
2023-02-22T03:30:40.167Z,74.81
2023-02-22T03:31:55.037Z,74.98
2023-02-22T03:33:09.321Z,75.19
2023-02-22T03:34:43.411Z,75.03
2023-02-22T03:35:57.444Z,74.87
2023-02-22T03:37:16.251Z,74.97
2023-02-22T03:38:21.677Z,75.25
2023-02-22T03:39:31.280Z,75.24
2023-02-22T03:40:43.527Z,75.16
2023-02-22T03:41:53.050Z,75.17
2023-02-22T03:43:10.538Z,74.92
2023-02-22T03:44:21.198Z,74.85
2023-02-22T03:45:28.643Z,74.62
2023-02-22T03:46:38.356Z,74.46
2023-02-22T03:47:51.731Z,74.51
2023-02-22T03:49:02.099Z,74.76
2023-02-22T03:50:18.423Z,74.33
2023-02-22T03:51:24.779Z,74.59
2023-02-22T03:52:28.944Z,74.43
2023-02-22T03:53:37.298Z,74.34
2023-02-22T03:54:41.490Z,74.43
2023-02-22T03:55:51.729Z,74.36
2023-02-22T03:57:04.888Z,74.19
2023-02-22T03:58:15.039Z,74.21
2023-02-22T03:59:19.880Z,74.33
2023-02-22T04:00:28.852Z,74.33
2023-02-22T04:01:33.260Z,74.21
2023-02-22T04:02:37.318Z,74.48
2023-02-22T04:03:42.403Z,74.29
2023-02-22T04:04:47.836Z,74.19
2023-02-22T04:08:26.143Z,74.23
2023-02-22T04:09:30.150Z,73.93
2023-02-22T04:10:34.141Z,74.11
2023-02-22T04:11:37.888Z,74.34
2023-02-22T04:12:41.830Z,74.14
2023-02-22T04:13:45.774Z,74.00
2023-02-22T04:14:49.682Z,73.94
2023-02-22T04:15:54.208Z,74.12
2023-02-22T04:16:58.480Z,73.97
2023-02-22T04:18:02.345Z,74.33
2023-02-22T04:19:09.647Z,74.07
2023-02-22T04:20:14.233Z,74.32
2023-02-22T04:21:18.026Z,74.07
2023-02-22T04:22:22.329Z,74.21
2023-02-22T04:23:27.189Z,73.87
2023-02-22T04:24:31.093Z,73.92
2023-02-22T04:25:34.907Z,74.11
2023-02-22T04:26:38.621Z,73.76
2023-02-22T04:27:42.197Z,74.20
2023-02-22T04:28:46.024Z,74.18
2023-02-22T04:29:51.378Z,74.30
2023-02-22T04:30:55.412Z,74.49
2023-02-22T04:31:59.186Z,74.50
2023-02-22T04:33:02.821Z,74.19
2023-02-22T04:34:11.517Z,74.65
2023-02-22T04:35:15.633Z,74.44
2023-02-22T04:36:19.365Z,74.41
2023-02-22T04:37:23.185Z,74.54
2023-02-22T04:38:27.372Z,74.73
2023-02-22T04:39:31.044Z,74.65
2023-02-22T04:40:35.657Z,74.66
2023-02-22T04:41:39.724Z,74.68
2023-02-22T04:42:44.057Z,74.89
2023-02-22T04:43:48.385Z,75.03
2023-02-22T04:44:54.943Z,74.90
2023-02-22T04:45:58.755Z,75.01
2023-02-22T04:47:02.270Z,74.89
2023-02-22T04:48:15.353Z,74.75
2023-02-22T04:49:19.343Z,75.18
2023-02-22T04:50:23.544Z,75.12
2023-02-22T04:51:27.477Z,75.32
2023-02-22T04:52:31.090Z,75.28
2023-02-22T04:53:36.235Z,75.24
2023-02-22T04:54:42.999Z,74.97
2023-02-22T04:55:47.058Z,75.16
2023-02-22T04:56:52.434Z,75.23
2023-02-22T04:57:57.569Z,75.21
2023-02-22T04:59:01.328Z,75.59
2023-02-22T05:00:11.010Z,75.31
2023-02-22T05:01:17.762Z,75.10
2023-02-22T05:02:22.182Z,75.07
2023-02-22T05:03:25.862Z,75.03
2023-02-22T05:04:30.085Z,75.12
2023-02-22T05:05:33.934Z,74.79
2023-02-22T05:06:38.212Z,75.20
2023-02-22T05:07:42.507Z,75.06
2023-02-22T05:08:46.195Z,75.02
2023-02-22T05:09:50.331Z,75.21
2023-02-22T05:10:54.828Z,75.38
2023-02-22T05:11:58.458Z,75.34
2023-02-22T05:13:04.013Z,75.39
2023-02-22T05:14:10.134Z,75.74
2023-02-22T05:15:20.719Z,75.41
2023-02-22T05:16:24.759Z,75.50
2023-02-22T05:17:29.155Z,75.72
2023-02-22T05:18:33.026Z,75.81
2023-02-22T05:19:37.449Z,75.76
2023-02-22T05:20:41.303Z,75.68
2023-02-22T05:21:45.368Z,75.93
2023-02-22T05:22:49.486Z,76.08
2023-02-22T05:23:53.268Z,76.06
2023-02-22T05:24:57.075Z,75.94
2023-02-22T05:26:01.234Z,75.88
2023-02-22T05:27:05.446Z,75.92
2023-02-22T05:28:15.016Z,75.81
2023-02-22T05:29:19.177Z,75.96
2023-02-22T05:30:30.486Z,75.68
2023-02-22T05:31:34.227Z,75.78
2023-02-22T05:32:38.062Z,75.86
2023-02-22T05:33:42.108Z,75.87
2023-02-22T05:34:46.176Z,75.84
2023-02-22T05:35:50.673Z,76.23
2023-02-22T05:36:57.856Z,76.00
2023-02-22T05:38:03.848Z,76.08
2023-02-22T05:39:10.057Z,76.43
2023-02-22T05:40:14.966Z,76.17
2023-02-22T05:41:18.754Z,76.00
2023-02-22T05:42:23.953Z,76.18
2023-02-22T05:43:27.819Z,76.16
2023-02-22T05:44:31.396Z,76.03
2023-02-22T05:45:36.860Z,76.30
2023-02-22T05:46:42.319Z,76.12
2023-02-22T05:47:46.960Z,76.46
2023-02-22T05:48:51.631Z,76.25
2023-02-22T05:49:55.661Z,76.14
2023-02-22T05:51:00.252Z,76.33
2023-02-22T05:52:03.941Z,76.27
2023-02-22T05:53:14.181Z,76.29
2023-02-22T05:54:18.003Z,76.05
2023-02-22T05:55:24.137Z,76.21
2023-02-22T05:56:31.332Z,76.15
2023-02-22T05:57:35.834Z,76.55
2023-02-22T05:58:39.892Z,76.44
2023-02-22T05:59:43.641Z,76.76
2023-02-22T06:00:47.644Z,76.36
2023-02-22T06:01:51.650Z,76.82
2023-02-22T06:03:09.711Z,76.71
2023-02-22T06:04:13.423Z,76.49
2023-02-22T06:05:17.164Z,76.65
2023-02-22T06:06:22.562Z,76.78
2023-02-22T06:07:28.876Z,76.70
2023-02-22T06:08:33.081Z,76.62
2023-02-22T06:09:37.267Z,77.16
2023-02-22T06:10:40.921Z,77.14
2023-02-22T06:11:44.863Z,77.12
2023-02-22T06:12:50.655Z,76.98
2023-02-22T06:13:55.024Z,77.38
2023-02-22T06:14:59.214Z,77.18
2023-02-22T06:16:04.770Z,77.20
2023-02-22T06:17:14.699Z,76.94
2023-02-22T06:18:18.596Z,77.03
2023-02-22T06:19:22.390Z,76.97
2023-02-22T06:20:29.130Z,76.93
2023-02-22T06:21:33.232Z,76.95
2023-02-22T06:22:36.801Z,76.86
2023-02-22T06:23:40.510Z,77.32
2023-02-22T06:24:44.554Z,77.11
2023-02-22T06:25:49.358Z,77.25
2023-02-22T06:27:02.274Z,77.02
2023-02-22T06:28:09.551Z,77.14
2023-02-22T06:29:13.896Z,77.31
2023-02-22T06:30:21.171Z,77.09
2023-02-22T06:31:25.436Z,77.02
2023-02-22T06:32:29.326Z,77.33
2023-02-22T06:33:33.164Z,77.28
2023-02-22T06:34:37.453Z,77.02
2023-02-22T06:35:41.247Z,77.23
2023-02-22T06:36:47.948Z,77.54
2023-02-22T06:37:52.095Z,77.45
2023-02-22T06:38:58.608Z,77.48
2023-02-22T06:40:05.504Z,77.46
2023-02-22T06:41:12.801Z,77.09
2023-02-22T06:42:17.294Z,76.97
2023-02-22T06:43:22.871Z,76.88
2023-02-22T06:44:26.882Z,77.16
2023-02-22T06:45:31.256Z,77.03
2023-02-22T06:46:35.241Z,76.98
2023-02-22T06:47:41.417Z,77.00
2023-02-22T06:48:45.252Z,76.80
2023-02-22T06:50:00.882Z,76.81
2023-02-22T06:51:05.729Z,76.94
2023-02-22T06:52:11.236Z,76.76
2023-02-22T06:53:15.097Z,76.35
2023-02-22T06:54:19.205Z,76.41
2023-02-22T06:55:30.220Z,76.31
2023-02-22T06:56:34.005Z,75.95
2023-02-22T06:57:37.765Z,76.09
2023-02-22T06:58:41.399Z,76.20
2023-02-22T06:59:45.500Z,75.85
2023-02-22T07:00:49.776Z,75.80
2023-02-22T07:01:55.058Z,75.57
2023-02-22T07:03:00.384Z,75.57
2023-02-22T07:04:05.097Z,75.56
2023-02-22T07:05:17.282Z,75.38
2023-02-22T07:06:21.611Z,75.50
2023-02-22T07:07:26.264Z,75.46
2023-02-22T07:08:30.983Z,75.06
2023-02-22T07:09:34.962Z,75.52
2023-02-22T07:10:41.494Z,75.14
2023-02-22T07:11:45.420Z,75.13
2023-02-22T07:12:49.395Z,75.48
2023-02-22T07:13:53.420Z,75.34
2023-02-22T07:14:57.346Z,74.68
2023-02-22T07:16:07.782Z,74.64
2023-02-22T07:17:13.123Z,74.82
2023-02-22T07:18:17.488Z,74.74
2023-02-22T07:19:21.232Z,74.33
2023-02-22T07:20:28.729Z,74.66
2023-02-22T07:21:32.660Z,74.41
2023-02-22T07:22:36.469Z,74.29
2023-02-22T07:23:40.399Z,74.61
2023-02-22T07:24:44.776Z,74.91
2023-02-22T07:25:49.086Z,75.00
2023-02-22T07:26:54.233Z,73.73
2023-02-22T07:27:59.761Z,73.84
2023-02-22T07:29:03.779Z,74.24
2023-02-22T07:30:25.749Z,74.52
2023-02-22T07:31:39.667Z,74.18
2023-02-22T07:32:44.637Z,73.74
2023-02-22T07:33:49.329Z,73.26
2023-02-22T07:35:03.350Z,73.50
2023-02-22T07:36:16.126Z,73.61
2023-02-22T07:37:21.488Z,72.85
2023-02-22T07:38:25.406Z,72.90
2023-02-22T07:39:29.322Z,72.75
2023-02-22T07:40:34.170Z,72.91
2023-02-22T07:41:38.394Z,72.32
2023-02-22T07:43:09.524Z,72.60
2023-02-22T07:44:14.759Z,71.67
2023-02-22T07:45:19.980Z,71.58
2023-02-22T07:46:24.717Z,71.47
2023-02-22T07:47:28.474Z,71.92
2023-02-22T07:48:33.163Z,71.61
2023-02-22T07:49:38.459Z,71.13
2023-02-22T07:50:42.835Z,70.77
2023-02-22T07:51:46.955Z,70.88
2023-02-22T07:52:55.102Z,71.36
2023-02-22T07:53:59.066Z,70.46
2023-02-22T07:55:03.498Z,70.21
2023-02-22T07:56:11.551Z,71.00
2023-02-22T07:57:16.724Z,70.59
2023-02-22T07:58:24.354Z,70.59
2023-02-22T07:59:28.505Z,70.27
2023-02-22T08:00:41.343Z,70.50
2023-02-22T08:01:47.751Z,70.34
2023-02-22T08:02:52.213Z,70.31
2023-02-22T08:03:56.652Z,70.30
2023-02-22T08:05:15.300Z,69.63
2023-02-22T08:06:21.102Z,69.79
2023-02-22T08:07:24.879Z,69.56
2023-02-22T08:08:32.016Z,69.14
2023-02-22T08:09:35.898Z,69.77
2023-02-22T08:10:39.864Z,68.93
2023-02-22T08:11:43.805Z,68.90
2023-02-22T08:12:56.106Z,68.96
2023-02-22T08:14:00.203Z,68.58
2023-02-22T08:15:17.038Z,68.44
2023-02-22T08:16:29.782Z,67.67
2023-02-22T08:17:36.167Z,68.59
2023-02-22T08:20:03.739Z,66.81
2023-02-22T08:21:10.847Z,66.73
2023-02-22T08:22:14.600Z,66.33
2023-02-22T08:23:28.886Z,67.28
2023-02-22T08:24:32.826Z,66.57
2023-02-22T08:25:50.317Z,66.48
2023-02-22T08:26:54.179Z,66.23
2023-02-22T08:28:12.497Z,65.54
2023-02-22T08:29:16.724Z,64.68
2023-02-22T08:30:24.898Z,64.40
2023-02-22T08:31:28.819Z,64.67
2023-02-22T08:32:33.104Z,64.62
2023-02-22T08:33:37.108Z,64.83
2023-02-22T08:34:41.039Z,64.53
2023-02-22T08:35:46.631Z,63.91
2023-02-22T08:36:51.139Z,63.52
2023-02-22T08:38:18.459Z,63.73
2023-02-22T08:39:23.149Z,63.58
2023-02-22T08:40:33.894Z,63.36
2023-02-22T08:41:38.239Z,63.30
2023-02-22T08:42:42.392Z,62.42
2023-02-22T08:43:46.203Z,62.53
2023-02-22T08:44:50.595Z,62.53
2023-02-22T08:45:57.784Z,61.67
2023-02-22T08:47:02.368Z,61.00
2023-02-22T08:48:10.532Z,61.63
2023-02-22T08:49:14.482Z,61.54
2023-02-22T08:50:26.075Z,60.51
2023-02-22T08:51:30.229Z,61.43
2023-02-22T08:52:36.266Z,61.45
2023-02-22T08:53:40.176Z,61.42
2023-02-22T08:54:46.802Z,60.99
2023-02-22T08:55:51.986Z,60.74
2023-02-22T08:56:58.333Z,61.17
2023-02-22T08:58:04.968Z,60.99
2023-02-22T08:59:13.158Z,60.48
2023-02-22T09:00:26.388Z,59.15
2023-02-22T09:01:33.405Z,59.70
2023-02-22T09:02:37.497Z,58.48
2023-02-22T09:03:41.940Z,58.78
2023-02-22T09:04:49.089Z,57.80
2023-02-22T09:06:01.408Z,58.45
2023-02-22T09:07:06.050Z,58.10
2023-02-22T09:08:17.935Z,58.07
2023-02-22T09:09:22.290Z,58.52
2023-02-22T09:10:31.145Z,58.59
2023-02-22T09:11:35.176Z,58.74
2023-02-22T09:12:39.898Z,58.93
2023-02-22T09:13:44.101Z,58.80
2023-02-22T09:14:47.701Z,58.19
2023-02-22T09:15:51.722Z,58.75
2023-02-22T09:16:56.360Z,58.04
2023-02-22T09:18:01.207Z,57.77
2023-02-22T09:19:05.970Z,57.26
2023-02-22T09:20:12.522Z,56.53
2023-02-22T09:21:17.082Z,56.81
2023-02-22T09:22:20.950Z,56.62
2023-02-22T09:23:26.350Z,56.93
2023-02-22T09:24:31.093Z,56.77
2023-02-22T09:25:36.353Z,56.63
2023-02-22T09:26:40.585Z,55.86
2023-02-22T09:27:48.075Z,55.63
2023-02-22T09:28:52.180Z,56.37
2023-02-22T09:29:56.626Z,56.00
2023-02-22T09:31:01.125Z,55.93
2023-02-22T09:32:06.016Z,55.71
2023-02-22T09:33:16.109Z,55.60
2023-02-22T09:34:22.857Z,56.00
2023-02-22T09:35:27.749Z,55.99
2023-02-22T09:36:31.658Z,56.13
2023-02-22T09:37:35.954Z,55.67
2023-02-22T09:38:39.791Z,56.21
2023-02-22T09:39:44.979Z,56.24
2023-02-22T09:41:03.309Z,55.84
2023-02-22T09:42:26.097Z,55.35
2023-02-22T09:43:40.730Z,55.40
2023-02-22T09:45:13.012Z,54.60
2023-02-22T09:46:42.241Z,54.36
2023-02-22T09:47:56.997Z,54.71
2023-02-22T09:49:15.601Z,54.59
2023-02-22T09:50:29.502Z,54.32
2023-02-22T09:51:41.621Z,54.07
2023-02-22T09:53:15.960Z,54.11
2023-02-22T09:54:54.782Z,54.45
2023-02-22T09:56:19.446Z,54.25
2023-02-22T09:57:37.645Z,53.49
2023-02-22T09:58:47.761Z,54.23
2023-02-22T10:00:13.753Z,53.60
2023-02-22T10:01:33.104Z,53.80
2023-02-22T10:03:16.564Z,53.45
2023-02-22T10:04:59.576Z,53.55
2023-02-22T10:06:15.397Z,53.55
2023-02-22T10:07:28.845Z,53.87
2023-02-22T10:08:35.537Z,53.51
2023-02-22T10:09:45.962Z,53.29
2023-02-22T10:11:41.363Z,53.04
2023-02-22T10:13:14.309Z,52.97
2023-02-22T10:14:44.107Z,52.92
2023-02-22T10:16:21.214Z,52.91
2023-02-22T10:18:00.989Z,53.08
2023-02-22T10:19:25.718Z,52.62
2023-02-22T10:20:42.042Z,52.57
2023-02-22T10:22:12.750Z,52.19
2023-02-22T10:23:41.906Z,51.90
2023-02-22T10:25:06.143Z,52.05
2023-02-22T10:26:28.789Z,52.21
2023-02-22T10:27:42.894Z,52.75
2023-02-22T10:29:29.432Z,52.08
2023-02-22T10:30:43.754Z,52.00
2023-02-22T10:31:57.280Z,51.05
2023-02-22T10:33:22.855Z,51.33
2023-02-22T10:34:34.283Z,51.17
2023-02-22T10:35:46.777Z,50.84
2023-02-22T10:37:31.017Z,50.87
2023-02-22T10:38:36.038Z,50.90
2023-02-22T10:39:42.514Z,50.55
2023-02-22T10:40:55.381Z,50.10
2023-02-22T10:42:07.845Z,50.13
2023-02-22T10:43:12.857Z,50.10
2023-02-22T10:44:17.291Z,49.94
2023-02-22T10:45:28.612Z,49.92
2023-02-22T10:46:35.445Z,49.38
2023-02-22T10:47:39.793Z,50.04
2023-02-22T10:48:52.100Z,49.72
2023-02-22T10:50:01.757Z,49.52
2023-02-22T10:51:10.042Z,49.18
2023-02-22T10:52:31.563Z,48.64
2023-02-22T10:53:40.891Z,49.20
2023-02-22T10:54:52.054Z,49.29
2023-02-22T10:56:18.932Z,48.89
2023-02-22T10:57:32.278Z,48.50
2023-02-22T10:59:01.595Z,48.35
2023-02-22T11:00:30.792Z,48.64
2023-02-22T11:01:43.054Z,48.02
2023-02-22T11:03:03.289Z,48.02
2023-02-22T11:04:14.127Z,47.98
2023-02-22T11:05:38.090Z,47.83
2023-02-22T11:07:06.799Z,47.92
2023-02-22T11:08:28.254Z,47.57
2023-02-22T11:09:45.764Z,48.04
2023-02-22T11:10:57.174Z,48.28
2023-02-22T11:12:38.038Z,48.00
2023-02-22T11:13:42.629Z,48.02
2023-02-22T11:14:47.766Z,48.33
2023-02-22T11:15:58.524Z,48.01
2023-02-22T11:17:08.842Z,48.47
2023-02-22T11:18:35.816Z,48.94
2023-02-22T11:19:49.560Z,48.94
2023-02-22T11:21:08.294Z,49.04
2023-02-22T11:22:31.128Z,49.20
2023-02-22T11:23:38.766Z,49.30
2023-02-22T11:25:01.577Z,48.92
2023-02-22T11:26:19.561Z,48.83
2023-02-22T11:27:40.830Z,49.04
2023-02-22T11:28:56.756Z,48.78
2023-02-22T11:30:27.861Z,49.31
2023-02-22T11:31:32.830Z,49.52
2023-02-22T11:32:43.532Z,49.75
2023-02-22T11:34:03.574Z,49.68
2023-02-22T11:35:28.278Z,50.14
2023-02-22T11:36:40.642Z,50.31
2023-02-22T11:37:44.843Z,50.44
2023-02-22T11:38:59.736Z,50.35
2023-02-22T11:40:23.013Z,50.75
2023-02-22T11:41:37.626Z,50.56
2023-02-22T11:42:41.952Z,50.48
2023-02-22T11:43:52.888Z,50.50
2023-02-22T11:45:27.898Z,50.48
2023-02-22T11:46:37.599Z,50.60
2023-02-22T11:48:20.462Z,50.62
2023-02-22T11:49:39.111Z,50.01
2023-02-22T11:51:15.935Z,50.64
2023-02-22T11:52:40.246Z,50.33
2023-02-22T11:54:13.630Z,52.39
2023-02-22T11:55:42.719Z,52.49
2023-02-22T11:56:51.833Z,51.78
2023-02-22T11:58:18.591Z,52.18
2023-02-22T11:59:41.985Z,50.65
2023-02-22T12:01:01.614Z,51.28
2023-02-22T12:02:56.307Z,50.11
2023-02-22T12:04:25.094Z,51.36
2023-02-22T12:06:10.459Z,52.12
2023-02-22T12:07:31.017Z,49.67
2023-02-22T12:09:04.529Z,50.14
2023-02-22T12:10:39.757Z,49.79
2023-02-22T12:12:08.374Z,48.90
2023-02-22T12:13:41.609Z,48.89
2023-02-22T12:15:40.596Z,48.65
2023-02-22T12:17:35.105Z,49.05
2023-02-22T12:19:36.442Z,48.61
2023-02-22T12:20:56.650Z,49.16
2023-02-22T12:22:20.069Z,48.85
2023-02-22T12:23:33.873Z,49.07
2023-02-22T12:25:00.700Z,48.89
2023-02-22T12:26:32.354Z,49.20
2023-02-22T12:27:53.241Z,49.24
2023-02-22T12:29:25.870Z,48.89
2023-02-22T12:30:42.708Z,48.86
2023-02-22T12:32:10.399Z,48.99
2023-02-22T12:33:24.754Z,48.90
2023-02-22T12:34:29.241Z,48.99
2023-02-22T12:35:39.734Z,49.44
2023-02-22T12:37:21.251Z,49.10
2023-02-22T12:38:44.683Z,49.30
2023-02-22T12:40:10.548Z,49.17
2023-02-22T12:41:47.379Z,48.55
2023-02-22T12:43:22.846Z,48.78
2023-02-22T12:44:40.740Z,48.79
2023-02-22T12:46:29.225Z,48.72
2023-02-22T12:48:12.684Z,48.75
2023-02-22T12:49:40.480Z,48.81
2023-02-22T12:50:49.560Z,49.24
2023-02-22T12:52:19.393Z,49.26
2023-02-22T12:53:34.874Z,49.09
2023-02-22T12:55:16.578Z,49.41
2023-02-22T12:56:51.357Z,48.95
2023-02-22T12:58:14.954Z,49.50
2023-02-22T13:00:14.223Z,49.33
2023-02-22T13:01:26.500Z,49.40
2023-02-22T13:03:03.599Z,49.17
2023-02-22T13:04:20.591Z,49.26
2023-02-22T13:05:25.875Z,49.38
2023-02-22T13:06:39.274Z,49.13
2023-02-22T13:07:58.802Z,49.26
2023-02-22T13:09:32.310Z,49.17
2023-02-22T13:11:19.263Z,48.93
2023-02-22T13:12:34.489Z,49.19
2023-02-22T13:14:01.906Z,49.26
2023-02-22T13:15:38.543Z,49.32
2023-02-22T13:17:08.086Z,49.34
2023-02-22T13:18:42.159Z,49.07
2023-02-22T13:20:03.764Z,49.67
2023-02-22T13:21:45.093Z,48.66
2023-02-22T13:23:10.917Z,49.01
2023-02-22T13:24:43.177Z,49.12
2023-02-22T13:26:30.463Z,48.78
2023-02-22T13:27:59.546Z,49.22
2023-02-22T13:29:20.862Z,49.09
2023-02-22T13:31:15.818Z,48.52
2023-02-22T13:32:36.769Z,48.73
2023-02-22T13:34:24.880Z,48.65
2023-02-22T13:35:51.642Z,48.92
2023-02-22T13:37:29.899Z,48.67
2023-02-22T13:39:02.212Z,48.87
2023-02-22T13:40:42.315Z,49.21
2023-02-22T13:42:16.546Z,49.20
2023-02-22T13:44:31.202Z,49.20
2023-02-22T13:46:23.502Z,49.00
2023-02-22T13:48:07.968Z,49.26
2023-02-22T13:49:49.685Z,49.62
2023-02-22T13:51:18.008Z,49.47
2023-02-22T13:52:31.287Z,49.73
2023-02-22T13:54:30.030Z,49.70
2023-02-22T13:55:37.292Z,49.19
2023-02-22T13:56:48.647Z,49.58
2023-02-22T13:58:04.562Z,49.61
2023-02-22T13:59:27.320Z,49.61
2023-02-22T14:00:50.545Z,49.64
2023-02-22T14:01:57.509Z,50.09
2023-02-22T14:03:31.797Z,49.98
2023-02-22T14:04:40.476Z,50.02
2023-02-22T14:05:51.089Z,49.86
2023-02-22T14:07:02.276Z,49.74
2023-02-22T14:08:09.207Z,49.47
2023-02-22T14:09:56.705Z,49.48
2023-02-22T14:11:07.642Z,49.49
2023-02-22T14:12:35.454Z,49.38
2023-02-22T14:13:55.939Z,49.70
2023-02-22T14:15:29.649Z,49.64
2023-02-22T14:16:36.395Z,49.87
2023-02-22T14:18:02.276Z,49.55
2023-02-22T14:19:24.009Z,49.67
2023-02-22T14:20:37.744Z,49.82
2023-02-22T14:22:07.074Z,49.13
2023-02-22T14:23:34.739Z,49.45
2023-02-22T14:24:46.794Z,49.45
2023-02-22T14:25:51.985Z,49.77
2023-02-22T14:27:06.553Z,49.68
2023-02-22T14:28:36.662Z,49.48
2023-02-22T14:29:55.902Z,49.71
2023-02-22T14:31:17.424Z,49.10
2023-02-22T14:32:35.240Z,49.61
2023-02-22T14:34:13.415Z,49.78
2023-02-22T14:35:27.523Z,49.81
2023-02-22T14:36:45.535Z,49.87
2023-02-22T14:38:00.635Z,49.67
2023-02-22T14:39:18.519Z,50.08
2023-02-22T14:40:29.491Z,50.01
2023-02-22T14:41:37.369Z,49.86
2023-02-22T14:42:50.304Z,50.18
2023-02-22T14:43:58.782Z,50.24
2023-02-22T14:45:10.341Z,50.19
2023-02-22T14:46:28.192Z,50.59
2023-02-22T14:47:49.749Z,50.43
2023-02-22T14:49:04.649Z,50.62
2023-02-22T14:50:37.409Z,50.66
2023-02-22T14:51:56.236Z,50.56
2023-02-22T14:53:27.382Z,50.42
2023-02-22T14:54:51.791Z,50.77
2023-02-22T14:56:23.864Z,50.89
2023-02-22T14:57:53.829Z,51.03
2023-02-22T14:59:08.523Z,51.30
2023-02-22T15:00:31.939Z,51.08
2023-02-22T15:01:52.790Z,51.33
2023-02-22T15:03:03.411Z,51.11
2023-02-22T15:04:26.481Z,51.16
2023-02-22T15:05:38.805Z,50.97
2023-02-22T15:06:43.525Z,51.02
2023-02-22T15:08:03.513Z,50.89
2023-02-22T15:09:33.573Z,51.02
2023-02-22T15:10:44.840Z,51.42
2023-02-22T15:11:49.769Z,51.06
2023-02-22T15:13:10.914Z,51.16
2023-02-22T15:14:26.267Z,51.48
2023-02-22T15:15:32.273Z,51.82
2023-02-22T15:16:39.747Z,51.31
2023-02-22T15:17:46.401Z,51.47
2023-02-22T15:19:00.320Z,51.12
2023-02-22T15:20:12.679Z,51.22
2023-02-22T15:21:23.789Z,51.24
2023-02-22T15:22:36.655Z,51.43
2023-02-22T15:23:45.698Z,51.35
2023-02-22T15:25:11.894Z,51.20
2023-02-22T15:26:37.563Z,51.14
2023-02-22T15:27:47.725Z,51.30
2023-02-22T15:28:57.829Z,51.57
2023-02-22T15:30:06.110Z,51.58
2023-02-22T15:31:30.790Z,51.76
2023-02-22T15:32:49.914Z,51.65
2023-02-22T15:33:58.890Z,51.63
2023-02-22T15:35:27.772Z,51.62
2023-02-22T15:36:32.076Z,51.92
2023-02-22T15:37:35.832Z,51.86
2023-02-22T15:38:39.993Z,51.87
2023-02-22T15:39:44.192Z,51.69
2023-02-22T15:40:59.021Z,51.62
2023-02-22T15:42:19.678Z,51.86
2023-02-22T15:43:28.661Z,51.43
2023-02-22T15:44:43.296Z,51.62
2023-02-22T15:45:47.645Z,51.88
2023-02-22T15:46:54.529Z,52.18
2023-02-22T15:47:59.375Z,52.57
2023-02-22T15:49:08.158Z,52.32